sensor_id;sensor_type;location;lat;lon;timestamp;P1;durP1;ratioP1;P2;durP2;ratioP2
3068;SDS011;1545;51.728;8.796;2024-03-22T00:00:41;76.50;;;38.33;;
3068;SDS011;1545;51.728;8.796;2024-03-22T00:03:07;84.57;;;39.80;;
3068;SDS011;1545;51.728;8.796;2024-03-22T00:05:32;85.00;;;40.30;;
3068;SDS011;1545;51.728;8.796;2024-03-22T00:07:58;82.00;;;38.00;;
3068;SDS011;1545;51.728;8.796;2024-03-22T00:10:24;78.43;;;38.67;;
3068;SDS011;1545;51.728;8.796;2024-03-22T00:12:49;80.60;;;39.00;;
3068;SDS011;1545;51.728;8.796;2024-03-22T00:15:14;86.20;;;39.20;;
3068;SDS011;1545;51.728;8.796;2024-03-22T00:17:40;82.43;;;38.27;;
3068;SDS011;1545;51.728;8.796;2024-03-22T00:20:07;78.23;;;36.47;;
3068;SDS011;1545;51.728;8.796;2024-03-22T00:22:33;80.07;;;37.83;;
3068;SDS011;1545;51.728;8.796;2024-03-22T00:24:58;85.60;;;38.53;;
3068;SDS011;1545;51.728;8.796;2024-03-22T00:27:24;80.57;;;38.27;;
3068;SDS011;1545;51.728;8.796;2024-03-22T00:29:49;77.43;;;37.90;;
3068;SDS011;1545;51.728;8.796;2024-03-22T00:32:14;76.90;;;37.17;;
3068;SDS011;1545;51.728;8.796;2024-03-22T00:34:40;74.40;;;36.97;;
3068;SDS011;1545;51.728;8.796;2024-03-22T00:37:06;82.67;;;36.03;;
3068;SDS011;1545;51.728;8.796;2024-03-22T00:39:31;76.83;;;37.23;;
3068;SDS011;1545;51.728;8.796;2024-03-22T00:41:57;72.53;;;35.70;;
3068;SDS011;1545;51.728;8.796;2024-03-22T00:44:22;72.40;;;36.33;;
3068;SDS011;1545;51.728;8.796;2024-03-22T00:46:48;78.03;;;36.30;;
3068;SDS011;1545;51.728;8.796;2024-03-22T00:49:13;82.90;;;36.10;;
3068;SDS011;1545;51.728;8.796;2024-03-22T00:51:39;84.50;;;35.70;;
3068;SDS011;1545;51.728;8.796;2024-03-22T00:54:04;82.90;;;35.73;;
3068;SDS011;1545;51.728;8.796;2024-03-22T00:56:30;70.60;;;34.40;;
3068;SDS011;1545;51.728;8.796;2024-03-22T00:58:55;75.90;;;36.47;;
3068;SDS011;1545;51.728;8.796;2024-03-22T01:01:21;82.30;;;36.27;;
3068;SDS011;1545;51.728;8.796;2024-03-22T01:03:46;78.33;;;35.13;;
3068;SDS011;1545;51.728;8.796;2024-03-22T01:06:11;73.60;;;35.87;;
3068;SDS011;1545;51.728;8.796;2024-03-22T01:08:37;76.63;;;35.70;;
3068;SDS011;1545;51.728;8.796;2024-03-22T01:11:02;78.27;;;35.03;;
3068;SDS011;1545;51.728;8.796;2024-03-22T01:13:28;68.87;;;33.63;;
3068;SDS011;1545;51.728;8.796;2024-03-22T01:15:53;77.47;;;35.90;;
3068;SDS011;1545;51.728;8.796;2024-03-22T01:18:19;82.40;;;37.13;;
3068;SDS011;1545;51.728;8.796;2024-03-22T01:20:44;78.73;;;35.27;;
3068;SDS011;1545;51.728;8.796;2024-03-22T01:23:10;72.87;;;34.83;;
3068;SDS011;1545;51.728;8.796;2024-03-22T01:25:35;83.07;;;35.37;;
3068;SDS011;1545;51.728;8.796;2024-03-22T01:28:01;81.43;;;36.07;;
3068;SDS011;1545;51.728;8.796;2024-03-22T01:30:26;78.87;;;36.33;;
3068;SDS011;1545;51.728;8.796;2024-03-22T01:32:55;78.63;;;36.20;;
3068;SDS011;1545;51.728;8.796;2024-03-22T01:35:20;82.87;;;36.73;;
3068;SDS011;1545;51.728;8.796;2024-03-22T01:37:46;94.37;;;35.50;;
3068;SDS011;1545;51.728;8.796;2024-03-22T01:40:12;79.60;;;35.90;;
3068;SDS011;1545;51.728;8.796;2024-03-22T01:42:38;84.93;;;36.00;;
3068;SDS011;1545;51.728;8.796;2024-03-22T01:45:04;80.00;;;35.73;;
3068;SDS011;1545;51.728;8.796;2024-03-22T01:47:29;88.97;;;37.63;;
3068;SDS011;1545;51.728;8.796;2024-03-22T01:49:55;82.20;;;35.83;;
3068;SDS011;1545;51.728;8.796;2024-03-22T01:52:21;81.93;;;35.77;;
3068;SDS011;1545;51.728;8.796;2024-03-22T01:54:47;82.77;;;36.50;;
3068;SDS011;1545;51.728;8.796;2024-03-22T01:57:14;83.90;;;36.30;;
3068;SDS011;1545;51.728;8.796;2024-03-22T01:59:39;87.10;;;37.60;;
3068;SDS011;1545;51.728;8.796;2024-03-22T02:02:05;79.57;;;36.60;;
3068;SDS011;1545;51.728;8.796;2024-03-22T02:04:31;85.43;;;36.50;;
3068;SDS011;1545;51.728;8.796;2024-03-22T02:06:56;96.20;;;37.63;;
3068;SDS011;1545;51.728;8.796;2024-03-22T02:09:22;86.80;;;36.00;;
3068;SDS011;1545;51.728;8.796;2024-03-22T02:11:47;85.10;;;37.10;;
3068;SDS011;1545;51.728;8.796;2024-03-22T02:14:13;78.70;;;35.60;;
3068;SDS011;1545;51.728;8.796;2024-03-22T02:16:39;83.13;;;34.33;;
3068;SDS011;1545;51.728;8.796;2024-03-22T02:19:05;81.80;;;35.53;;
3068;SDS011;1545;51.728;8.796;2024-03-22T02:21:31;79.70;;;35.80;;
3068;SDS011;1545;51.728;8.796;2024-03-22T02:23:58;77.07;;;34.77;;
3068;SDS011;1545;51.728;8.796;2024-03-22T02:26:24;76.37;;;34.33;;
3068;SDS011;1545;51.728;8.796;2024-03-22T02:28:49;80.10;;;34.80;;
3068;SDS011;1545;51.728;8.796;2024-03-22T02:31:15;78.63;;;34.97;;
3068;SDS011;1545;51.728;8.796;2024-03-22T02:33:40;81.27;;;34.67;;
3068;SDS011;1545;51.728;8.796;2024-03-22T02:36:06;76.47;;;32.83;;
3068;SDS011;1545;51.728;8.796;2024-03-22T02:38:31;71.97;;;32.33;;
3068;SDS011;1545;51.728;8.796;2024-03-22T02:40:59;75.07;;;32.57;;
3068;SDS011;1545;51.728;8.796;2024-03-22T02:43:24;72.77;;;32.20;;
3068;SDS011;1545;51.728;8.796;2024-03-22T02:45:50;72.53;;;32.37;;
3068;SDS011;1545;51.728;8.796;2024-03-22T02:48:15;69.67;;;31.07;;
3068;SDS011;1545;51.728;8.796;2024-03-22T02:50:41;60.03;;;29.60;;
3068;SDS011;1545;51.728;8.796;2024-03-22T02:53:07;64.77;;;30.03;;
3068;SDS011;1545;51.728;8.796;2024-03-22T02:55:36;70.23;;;29.30;;
3068;SDS011;1545;51.728;8.796;2024-03-22T02:58:02;72.83;;;30.47;;
3068;SDS011;1545;51.728;8.796;2024-03-22T03:00:28;64.83;;;30.70;;
3068;SDS011;1545;51.728;8.796;2024-03-22T03:02:53;63.87;;;29.70;;
3068;SDS011;1545;51.728;8.796;2024-03-22T03:05:19;64.50;;;30.80;;
3068;SDS011;1545;51.728;8.796;2024-03-22T03:07:44;65.33;;;30.20;;
3068;SDS011;1545;51.728;8.796;2024-03-22T03:10:12;68.80;;;30.60;;
3068;SDS011;1545;51.728;8.796;2024-03-22T03:12:37;65.33;;;29.83;;
3068;SDS011;1545;51.728;8.796;2024-03-22T03:15:03;59.23;;;28.63;;
3068;SDS011;1545;51.728;8.796;2024-03-22T03:17:28;57.27;;;28.10;;
3068;SDS011;1545;51.728;8.796;2024-03-22T03:19:54;64.63;;;29.20;;
3068;SDS011;1545;51.728;8.796;2024-03-22T03:22:19;70.07;;;30.07;;
3068;SDS011;1545;51.728;8.796;2024-03-22T03:24:45;65.43;;;29.67;;
3068;SDS011;1545;51.728;8.796;2024-03-22T03:27:10;72.47;;;30.87;;
3068;SDS011;1545;51.728;8.796;2024-03-22T03:29:36;61.50;;;28.67;;
3068;SDS011;1545;51.728;8.796;2024-03-22T03:32:02;65.23;;;29.13;;
3068;SDS011;1545;51.728;8.796;2024-03-22T03:34:27;70.53;;;29.90;;
3068;SDS011;1545;51.728;8.796;2024-03-22T03:36:53;65.87;;;29.70;;
3068;SDS011;1545;51.728;8.796;2024-03-22T03:39:18;67.40;;;29.90;;
3068;SDS011;1545;51.728;8.796;2024-03-22T03:41:44;62.70;;;28.50;;
3068;SDS011;1545;51.728;8.796;2024-03-22T03:44:09;65.40;;;29.37;;
3068;SDS011;1545;51.728;8.796;2024-03-22T03:46:35;67.63;;;29.77;;
3068;SDS011;1545;51.728;8.796;2024-03-22T03:49:00;62.80;;;28.97;;
3068;SDS011;1545;51.728;8.796;2024-03-22T03:51:25;66.03;;;28.53;;
3068;SDS011;1545;51.728;8.796;2024-03-22T03:53:51;66.23;;;28.93;;
3068;SDS011;1545;51.728;8.796;2024-03-22T03:56:16;67.37;;;29.67;;
3068;SDS011;1545;51.728;8.796;2024-03-22T03:58:42;63.93;;;28.80;;
3068;SDS011;1545;51.728;8.796;2024-03-22T04:01:08;62.60;;;28.87;;
3068;SDS011;1545;51.728;8.796;2024-03-22T04:03:34;68.63;;;28.97;;
3068;SDS011;1545;51.728;8.796;2024-03-22T04:06:00;65.00;;;29.43;;
3068;SDS011;1545;51.728;8.796;2024-03-22T04:08:26;69.97;;;29.10;;
3068;SDS011;1545;51.728;8.796;2024-03-22T04:10:55;65.47;;;29.63;;
3068;SDS011;1545;51.728;8.796;2024-03-22T04:13:24;64.03;;;27.90;;
3068;SDS011;1545;51.728;8.796;2024-03-22T04:15:50;68.73;;;28.60;;
3068;SDS011;1545;51.728;8.796;2024-03-22T04:18:16;66.97;;;28.90;;
3068;SDS011;1545;51.728;8.796;2024-03-22T04:20:41;75.57;;;29.27;;
3068;SDS011;1545;51.728;8.796;2024-03-22T04:23:08;63.30;;;27.97;;
3068;SDS011;1545;51.728;8.796;2024-03-22T04:25:33;78.07;;;31.47;;
3068;SDS011;1545;51.728;8.796;2024-03-22T04:27:59;72.53;;;31.27;;
3068;SDS011;1545;51.728;8.796;2024-03-22T04:30:24;73.00;;;31.60;;
3068;SDS011;1545;51.728;8.796;2024-03-22T04:32:49;72.40;;;30.00;;
3068;SDS011;1545;51.728;8.796;2024-03-22T04:35:15;75.80;;;31.93;;
3068;SDS011;1545;51.728;8.796;2024-03-22T04:37:40;77.10;;;31.93;;
3068;SDS011;1545;51.728;8.796;2024-03-22T04:40:06;72.83;;;32.03;;
3068;SDS011;1545;51.728;8.796;2024-03-22T04:42:34;73.40;;;30.70;;
3068;SDS011;1545;51.728;8.796;2024-03-22T04:45:00;70.73;;;30.87;;
3068;SDS011;1545;51.728;8.796;2024-03-22T04:47:25;83.17;;;31.53;;
3068;SDS011;1545;51.728;8.796;2024-03-22T04:49:51;74.10;;;30.13;;
3068;SDS011;1545;51.728;8.796;2024-03-22T04:52:16;70.83;;;29.83;;
3068;SDS011;1545;51.728;8.796;2024-03-22T04:54:42;66.57;;;28.17;;
3068;SDS011;1545;51.728;8.796;2024-03-22T04:57:07;66.50;;;28.60;;
3068;SDS011;1545;51.728;8.796;2024-03-22T04:59:32;62.73;;;27.73;;
3068;SDS011;1545;51.728;8.796;2024-03-22T05:01:58;65.77;;;28.57;;
3068;SDS011;1545;51.728;8.796;2024-03-22T05:04:23;63.73;;;27.83;;
3068;SDS011;1545;51.728;8.796;2024-03-22T05:06:49;72.33;;;28.33;;
3068;SDS011;1545;51.728;8.796;2024-03-22T05:09:14;60.13;;;27.80;;
3068;SDS011;1545;51.728;8.796;2024-03-22T05:11:40;62.50;;;27.47;;
3068;SDS011;1545;51.728;8.796;2024-03-22T05:14:05;68.17;;;27.77;;
3068;SDS011;1545;51.728;8.796;2024-03-22T05:16:31;60.10;;;26.83;;
3068;SDS011;1545;51.728;8.796;2024-03-22T05:18:56;58.37;;;26.77;;
3068;SDS011;1545;51.728;8.796;2024-03-22T05:21:21;62.30;;;26.93;;
3068;SDS011;1545;51.728;8.796;2024-03-22T05:23:47;62.03;;;27.27;;
3068;SDS011;1545;51.728;8.796;2024-03-22T05:26:12;62.70;;;27.43;;
3068;SDS011;1545;51.728;8.796;2024-03-22T05:28:38;63.00;;;27.40;;
3068;SDS011;1545;51.728;8.796;2024-03-22T05:31:03;61.17;;;26.87;;
3068;SDS011;1545;51.728;8.796;2024-03-22T05:33:29;65.17;;;26.80;;
3068;SDS011;1545;51.728;8.796;2024-03-22T05:35:54;56.53;;;25.40;;
3068;SDS011;1545;51.728;8.796;2024-03-22T05:38:20;58.00;;;25.97;;
3068;SDS011;1545;51.728;8.796;2024-03-22T05:40:45;59.80;;;25.20;;
3068;SDS011;1545;51.728;8.796;2024-03-22T05:43:12;63.70;;;25.87;;
3068;SDS011;1545;51.728;8.796;2024-03-22T05:45:38;52.60;;;24.43;;
3068;SDS011;1545;51.728;8.796;2024-03-22T05:48:04;48.77;;;24.13;;
3068;SDS011;1545;51.728;8.796;2024-03-22T05:50:29;60.33;;;26.30;;
3068;SDS011;1545;51.728;8.796;2024-03-22T05:52:55;54.27;;;24.27;;
3068;SDS011;1545;51.728;8.796;2024-03-22T05:55:20;58.93;;;25.30;;
3068;SDS011;1545;51.728;8.796;2024-03-22T05:57:46;62.33;;;24.60;;
3068;SDS011;1545;51.728;8.796;2024-03-22T06:00:11;56.17;;;24.43;;
3068;SDS011;1545;51.728;8.796;2024-03-22T06:02:38;53.67;;;24.00;;
3068;SDS011;1545;51.728;8.796;2024-03-22T06:05:04;52.80;;;23.80;;
3068;SDS011;1545;51.728;8.796;2024-03-22T06:07:30;54.17;;;23.30;;
3068;SDS011;1545;51.728;8.796;2024-03-22T06:10:03;53.13;;;23.50;;
3068;SDS011;1545;51.728;8.796;2024-03-22T06:12:29;54.00;;;24.23;;
3068;SDS011;1545;51.728;8.796;2024-03-22T06:14:55;54.23;;;23.67;;
3068;SDS011;1545;51.728;8.796;2024-03-22T06:17:20;51.77;;;23.27;;
3068;SDS011;1545;51.728;8.796;2024-03-22T06:19:46;45.00;;;22.00;;
3068;SDS011;1545;51.728;8.796;2024-03-22T06:22:11;45.93;;;22.73;;
3068;SDS011;1545;51.728;8.796;2024-03-22T06:24:38;51.93;;;23.53;;
3068;SDS011;1545;51.728;8.796;2024-03-22T06:27:03;48.87;;;22.43;;
3068;SDS011;1545;51.728;8.796;2024-03-22T06:29:29;45.30;;;22.53;;
3068;SDS011;1545;51.728;8.796;2024-03-22T06:31:55;54.33;;;22.63;;
3068;SDS011;1545;51.728;8.796;2024-03-22T06:34:20;48.27;;;22.53;;
3068;SDS011;1545;51.728;8.796;2024-03-22T06:36:45;45.00;;;22.03;;
3068;SDS011;1545;51.728;8.796;2024-03-22T06:39:12;45.23;;;21.70;;
3068;SDS011;1545;51.728;8.796;2024-03-22T06:41:37;43.00;;;20.87;;
3068;SDS011;1545;51.728;8.796;2024-03-22T06:44:03;49.90;;;22.30;;
3068;SDS011;1545;51.728;8.796;2024-03-22T06:46:28;41.33;;;21.20;;
3068;SDS011;1545;51.728;8.796;2024-03-22T06:48:54;46.10;;;21.30;;
3068;SDS011;1545;51.728;8.796;2024-03-22T06:51:19;43.30;;;21.47;;
3068;SDS011;1545;51.728;8.796;2024-03-22T06:53:45;43.07;;;21.00;;
3068;SDS011;1545;51.728;8.796;2024-03-22T06:56:12;45.90;;;21.40;;
3068;SDS011;1545;51.728;8.796;2024-03-22T06:58:38;46.87;;;21.83;;
3068;SDS011;1545;51.728;8.796;2024-03-22T07:01:04;40.97;;;21.00;;
3068;SDS011;1545;51.728;8.796;2024-03-22T07:03:30;48.23;;;22.20;;
3068;SDS011;1545;51.728;8.796;2024-03-22T07:05:55;43.90;;;21.10;;
3068;SDS011;1545;51.728;8.796;2024-03-22T07:08:22;43.63;;;20.77;;
3068;SDS011;1545;51.728;8.796;2024-03-22T07:10:48;47.10;;;21.33;;
3068;SDS011;1545;51.728;8.796;2024-03-22T07:13:14;40.57;;;20.03;;
3068;SDS011;1545;51.728;8.796;2024-03-22T07:15:39;49.67;;;21.37;;
3068;SDS011;1545;51.728;8.796;2024-03-22T07:18:05;46.93;;;21.70;;
3068;SDS011;1545;51.728;8.796;2024-03-22T07:20:31;47.27;;;22.30;;
3068;SDS011;1545;51.728;8.796;2024-03-22T07:22:56;46.97;;;21.20;;
3068;SDS011;1545;51.728;8.796;2024-03-22T07:25:22;42.30;;;20.90;;
3068;SDS011;1545;51.728;8.796;2024-03-22T07:27:47;38.67;;;20.40;;
3068;SDS011;1545;51.728;8.796;2024-03-22T07:30:14;41.63;;;20.83;;
3068;SDS011;1545;51.728;8.796;2024-03-22T07:32:40;40.33;;;20.43;;
3068;SDS011;1545;51.728;8.796;2024-03-22T07:35:05;36.17;;;20.27;;
3068;SDS011;1545;51.728;8.796;2024-03-22T07:37:32;38.63;;;19.47;;
3068;SDS011;1545;51.728;8.796;2024-03-22T07:39:59;36.83;;;19.27;;
3068;SDS011;1545;51.728;8.796;2024-03-22T07:42:24;38.73;;;20.23;;
3068;SDS011;1545;51.728;8.796;2024-03-22T07:44:50;40.53;;;20.13;;
3068;SDS011;1545;51.728;8.796;2024-03-22T07:47:15;44.20;;;19.27;;
3068;SDS011;1545;51.728;8.796;2024-03-22T07:49:41;36.50;;;18.00;;
3068;SDS011;1545;51.728;8.796;2024-03-22T07:52:06;35.00;;;18.40;;
3068;SDS011;1545;51.728;8.796;2024-03-22T07:54:32;32.03;;;18.07;;
3068;SDS011;1545;51.728;8.796;2024-03-22T07:56:57;34.80;;;17.70;;
3068;SDS011;1545;51.728;8.796;2024-03-22T07:59:23;30.97;;;17.70;;
3068;SDS011;1545;51.728;8.796;2024-03-22T08:01:48;31.50;;;17.13;;
3068;SDS011;1545;51.728;8.796;2024-03-22T08:04:13;34.03;;;18.10;;
3068;SDS011;1545;51.728;8.796;2024-03-22T08:06:39;33.33;;;17.70;;
3068;SDS011;1545;51.728;8.796;2024-03-22T08:09:05;33.67;;;17.47;;
3068;SDS011;1545;51.728;8.796;2024-03-22T08:11:30;34.30;;;16.67;;
3068;SDS011;1545;51.728;8.796;2024-03-22T08:13:56;29.50;;;16.80;;
3068;SDS011;1545;51.728;8.796;2024-03-22T08:16:27;41.80;;;17.47;;
3068;SDS011;1545;51.728;8.796;2024-03-22T08:18:53;31.77;;;15.87;;
3068;SDS011;1545;51.728;8.796;2024-03-22T08:21:18;29.90;;;16.67;;
3068;SDS011;1545;51.728;8.796;2024-03-22T08:23:44;29.40;;;15.70;;
3068;SDS011;1545;51.728;8.796;2024-03-22T08:26:10;26.90;;;15.77;;
3068;SDS011;1545;51.728;8.796;2024-03-22T08:28:35;36.47;;;15.73;;
3068;SDS011;1545;51.728;8.796;2024-03-22T08:31:04;29.77;;;15.93;;
3068;SDS011;1545;51.728;8.796;2024-03-22T08:33:30;28.47;;;15.10;;
3068;SDS011;1545;51.728;8.796;2024-03-22T08:35:55;26.77;;;15.43;;
3068;SDS011;1545;51.728;8.796;2024-03-22T08:38:21;36.90;;;15.40;;
3068;SDS011;1545;51.728;8.796;2024-03-22T08:40:46;29.73;;;15.30;;
3068;SDS011;1545;51.728;8.796;2024-03-22T08:43:12;34.57;;;16.57;;
3068;SDS011;1545;51.728;8.796;2024-03-22T08:45:37;27.70;;;15.17;;
3068;SDS011;1545;51.728;8.796;2024-03-22T08:48:03;31.00;;;15.67;;
3068;SDS011;1545;51.728;8.796;2024-03-22T08:50:29;33.47;;;15.97;;
3068;SDS011;1545;51.728;8.796;2024-03-22T08:52:54;36.83;;;15.97;;
3068;SDS011;1545;51.728;8.796;2024-03-22T08:55:20;30.43;;;15.53;;
3068;SDS011;1545;51.728;8.796;2024-03-22T08:57:45;27.83;;;15.77;;
3068;SDS011;1545;51.728;8.796;2024-03-22T09:00:10;28.40;;;15.37;;
3068;SDS011;1545;51.728;8.796;2024-03-22T09:02:36;34.03;;;16.13;;
3068;SDS011;1545;51.728;8.796;2024-03-22T09:05:03;25.47;;;15.80;;
3068;SDS011;1545;51.728;8.796;2024-03-22T09:07:29;33.10;;;16.73;;
3068;SDS011;1545;51.728;8.796;2024-03-22T09:09:55;31.73;;;16.60;;
3068;SDS011;1545;51.728;8.796;2024-03-22T09:12:20;41.73;;;17.07;;
3068;SDS011;1545;51.728;8.796;2024-03-22T09:14:46;32.77;;;16.37;;
3068;SDS011;1545;51.728;8.796;2024-03-22T09:17:11;31.70;;;16.93;;
3068;SDS011;1545;51.728;8.796;2024-03-22T09:19:37;37.97;;;18.83;;
3068;SDS011;1545;51.728;8.796;2024-03-22T09:22:02;31.00;;;17.73;;
3068;SDS011;1545;51.728;8.796;2024-03-22T09:24:29;38.30;;;17.80;;
3068;SDS011;1545;51.728;8.796;2024-03-22T09:26:55;33.03;;;18.17;;
3068;SDS011;1545;51.728;8.796;2024-03-22T09:29:20;34.00;;;17.77;;
3068;SDS011;1545;51.728;8.796;2024-03-22T09:31:46;31.07;;;16.90;;
3068;SDS011;1545;51.728;8.796;2024-03-22T09:34:14;37.10;;;16.57;;
3068;SDS011;1545;51.728;8.796;2024-03-22T09:36:41;29.07;;;16.50;;
3068;SDS011;1545;51.728;8.796;2024-03-22T09:39:07;31.53;;;15.40;;
3068;SDS011;1545;51.728;8.796;2024-03-22T09:41:33;28.73;;;15.47;;
3068;SDS011;1545;51.728;8.796;2024-03-22T09:44:06;28.50;;;15.43;;
3068;SDS011;1545;51.728;8.796;2024-03-22T09:46:33;25.20;;;14.87;;
3068;SDS011;1545;51.728;8.796;2024-03-22T09:49:00;24.80;;;14.93;;
3068;SDS011;1545;51.728;8.796;2024-03-22T09:51:26;25.83;;;13.97;;
3068;SDS011;1545;51.728;8.796;2024-03-22T09:53:53;28.47;;;13.37;;
3068;SDS011;1545;51.728;8.796;2024-03-22T09:56:20;23.77;;;13.23;;
3068;SDS011;1545;51.728;8.796;2024-03-22T09:58:46;21.80;;;13.00;;
3068;SDS011;1545;51.728;8.796;2024-03-22T10:01:12;25.47;;;14.50;;
3068;SDS011;1545;51.728;8.796;2024-03-22T10:03:40;22.43;;;14.20;;
3068;SDS011;1545;51.728;8.796;2024-03-22T10:06:06;32.53;;;15.43;;
3068;SDS011;1545;51.728;8.796;2024-03-22T10:08:31;28.83;;;15.47;;
3068;SDS011;1545;51.728;8.796;2024-03-22T10:10:57;30.03;;;16.13;;
3068;SDS011;1545;51.728;8.796;2024-03-22T10:13:22;27.57;;;15.97;;
3068;SDS011;1545;51.728;8.796;2024-03-22T10:15:48;26.47;;;16.03;;
3068;SDS011;1545;51.728;8.796;2024-03-22T10:18:14;30.03;;;16.57;;
3068;SDS011;1545;51.728;8.796;2024-03-22T10:20:41;33.13;;;16.87;;
3068;SDS011;1545;51.728;8.796;2024-03-22T10:23:07;43.30;;;23.13;;
3068;SDS011;1545;51.728;8.796;2024-03-22T10:25:33;36.57;;;18.80;;
3068;SDS011;1545;51.728;8.796;2024-03-22T10:27:59;31.50;;;18.27;;
3068;SDS011;1545;51.728;8.796;2024-03-22T10:30:25;37.47;;;19.47;;
3068;SDS011;1545;51.728;8.796;2024-03-22T10:32:51;43.17;;;19.23;;
3068;SDS011;1545;51.728;8.796;2024-03-22T10:35:17;36.67;;;19.70;;
3068;SDS011;1545;51.728;8.796;2024-03-22T10:37:43;39.23;;;19.37;;
3068;SDS011;1545;51.728;8.796;2024-03-22T10:40:09;37.47;;;20.07;;
3068;SDS011;1545;51.728;8.796;2024-03-22T10:42:36;33.20;;;19.57;;
3068;SDS011;1545;51.728;8.796;2024-03-22T10:45:03;37.93;;;20.63;;
3068;SDS011;1545;51.728;8.796;2024-03-22T10:47:31;42.47;;;21.27;;
3068;SDS011;1545;51.728;8.796;2024-03-22T10:50:07;37.13;;;20.50;;
3068;SDS011;1545;51.728;8.796;2024-03-22T10:52:51;42.10;;;20.60;;
3068;SDS011;1545;51.728;8.796;2024-03-22T10:55:33;42.23;;;20.30;;
3068;SDS011;1545;51.728;8.796;2024-03-22T10:58:00;38.47;;;19.63;;
3068;SDS011;1545;51.728;8.796;2024-03-22T11:00:29;38.57;;;19.30;;
3068;SDS011;1545;51.728;8.796;2024-03-22T11:02:59;32.80;;;18.97;;
3068;SDS011;1545;51.728;8.796;2024-03-22T11:05:27;35.63;;;20.13;;
3068;SDS011;1545;51.728;8.796;2024-03-22T11:08:00;31.10;;;19.10;;
3068;SDS011;1545;51.728;8.796;2024-03-22T11:10:29;42.20;;;20.80;;
3068;SDS011;1545;51.728;8.796;2024-03-22T11:13:05;36.40;;;19.70;;
3068;SDS011;1545;51.728;8.796;2024-03-22T11:15:32;35.57;;;19.47;;
3068;SDS011;1545;51.728;8.796;2024-03-22T11:17:58;42.13;;;20.50;;
3068;SDS011;1545;51.728;8.796;2024-03-22T11:20:24;32.47;;;19.67;;
3068;SDS011;1545;51.728;8.796;2024-03-22T11:22:53;34.97;;;19.23;;
3068;SDS011;1545;51.728;8.796;2024-03-22T11:25:19;40.87;;;19.73;;
3068;SDS011;1545;51.728;8.796;2024-03-22T11:27:45;37.63;;;19.87;;
3068;SDS011;1545;51.728;8.796;2024-03-22T11:30:11;36.50;;;20.37;;
3068;SDS011;1545;51.728;8.796;2024-03-22T11:32:37;40.03;;;19.27;;
3068;SDS011;1545;51.728;8.796;2024-03-22T11:35:12;34.27;;;19.17;;
3068;SDS011;1545;51.728;8.796;2024-03-22T11:37:38;33.27;;;18.50;;
3068;SDS011;1545;51.728;8.796;2024-03-22T11:40:05;35.37;;;18.67;;
3068;SDS011;1545;51.728;8.796;2024-03-22T11:42:34;31.27;;;19.37;;
3068;SDS011;1545;51.728;8.796;2024-03-22T11:45:00;35.80;;;19.13;;
3068;SDS011;1545;51.728;8.796;2024-03-22T11:47:27;37.03;;;19.43;;
3068;SDS011;1545;51.728;8.796;2024-03-22T11:49:53;34.10;;;18.40;;
3068;SDS011;1545;51.728;8.796;2024-03-22T11:52:23;34.57;;;18.80;;
3068;SDS011;1545;51.728;8.796;2024-03-22T11:54:52;34.50;;;19.33;;
3068;SDS011;1545;51.728;8.796;2024-03-22T11:57:18;31.77;;;18.53;;
3068;SDS011;1545;51.728;8.796;2024-03-22T11:59:48;34.10;;;19.67;;
3068;SDS011;1545;51.728;8.796;2024-03-22T12:02:13;37.70;;;19.37;;
3068;SDS011;1545;51.728;8.796;2024-03-22T12:04:43;33.73;;;19.90;;
3068;SDS011;1545;51.728;8.796;2024-03-22T12:07:15;35.10;;;19.60;;
3068;SDS011;1545;51.728;8.796;2024-03-22T12:09:41;38.00;;;19.77;;
3068;SDS011;1545;51.728;8.796;2024-03-22T12:12:09;35.77;;;19.40;;
3068;SDS011;1545;51.728;8.796;2024-03-22T12:14:35;53.43;;;18.73;;
3068;SDS011;1545;51.728;8.796;2024-03-22T12:17:01;36.90;;;19.57;;
3068;SDS011;1545;51.728;8.796;2024-03-22T12:19:27;32.60;;;17.87;;
3068;SDS011;1545;51.728;8.796;2024-03-22T12:21:53;34.83;;;17.80;;
3068;SDS011;1545;51.728;8.796;2024-03-22T12:24:19;30.87;;;17.07;;
3068;SDS011;1545;51.728;8.796;2024-03-22T12:26:45;35.00;;;16.33;;
3068;SDS011;1545;51.728;8.796;2024-03-22T12:29:12;29.30;;;16.50;;
3068;SDS011;1545;51.728;8.796;2024-03-22T12:31:38;29.40;;;15.43;;
3068;SDS011;1545;51.728;8.796;2024-03-22T12:34:03;28.33;;;14.93;;
3068;SDS011;1545;51.728;8.796;2024-03-22T12:36:29;26.77;;;15.10;;
3068;SDS011;1545;51.728;8.796;2024-03-22T12:38:55;28.57;;;15.17;;
3068;SDS011;1545;51.728;8.796;2024-03-22T12:41:20;27.70;;;14.60;;
3068;SDS011;1545;51.728;8.796;2024-03-22T12:43:45;37.10;;;17.03;;
3068;SDS011;1545;51.728;8.796;2024-03-22T12:46:11;39.20;;;16.97;;
3068;SDS011;1545;51.728;8.796;2024-03-22T12:48:36;32.97;;;16.53;;
3068;SDS011;1545;51.728;8.796;2024-03-22T12:51:02;28.57;;;15.93;;
3068;SDS011;1545;51.728;8.796;2024-03-22T12:53:28;33.50;;;16.27;;
3068;SDS011;1545;51.728;8.796;2024-03-22T12:55:53;27.23;;;16.07;;
3068;SDS011;1545;51.728;8.796;2024-03-22T12:58:18;33.50;;;16.77;;
3068;SDS011;1545;51.728;8.796;2024-03-22T13:00:44;31.07;;;18.20;;
3068;SDS011;1545;51.728;8.796;2024-03-22T13:03:09;32.10;;;16.47;;
3068;SDS011;1545;51.728;8.796;2024-03-22T13:05:40;29.60;;;17.10;;
3068;SDS011;1545;51.728;8.796;2024-03-22T13:08:05;33.23;;;17.03;;
3068;SDS011;1545;51.728;8.796;2024-03-22T13:10:31;30.83;;;16.73;;
3068;SDS011;1545;51.728;8.796;2024-03-22T13:12:56;45.30;;;18.87;;
3068;SDS011;1545;51.728;8.796;2024-03-22T13:15:22;35.80;;;18.27;;
3068;SDS011;1545;51.728;8.796;2024-03-22T13:17:48;41.17;;;19.27;;
3068;SDS011;1545;51.728;8.796;2024-03-22T13:20:13;38.10;;;18.83;;
3068;SDS011;1545;51.728;8.796;2024-03-22T13:22:40;34.67;;;18.90;;
3068;SDS011;1545;51.728;8.796;2024-03-22T13:25:06;33.07;;;19.13;;
3068;SDS011;1545;51.728;8.796;2024-03-22T13:27:34;38.97;;;19.47;;
3068;SDS011;1545;51.728;8.796;2024-03-22T13:30:00;35.37;;;19.43;;
3068;SDS011;1545;51.728;8.796;2024-03-22T13:32:25;35.17;;;20.37;;
3068;SDS011;1545;51.728;8.796;2024-03-22T13:34:51;37.97;;;20.43;;
3068;SDS011;1545;51.728;8.796;2024-03-22T13:37:16;44.90;;;21.03;;
3068;SDS011;1545;51.728;8.796;2024-03-22T13:39:42;55.23;;;23.07;;
3068;SDS011;1545;51.728;8.796;2024-03-22T13:42:07;41.53;;;23.13;;
3068;SDS011;1545;51.728;8.796;2024-03-22T13:44:34;49.03;;;25.07;;
3068;SDS011;1545;51.728;8.796;2024-03-22T13:47:00;48.17;;;26.70;;
3068;SDS011;1545;51.728;8.796;2024-03-22T13:49:25;51.60;;;26.43;;
3068;SDS011;1545;51.728;8.796;2024-03-22T13:51:51;53.17;;;26.80;;
3068;SDS011;1545;51.728;8.796;2024-03-22T13:54:16;51.17;;;28.10;;
3068;SDS011;1545;51.728;8.796;2024-03-22T13:56:42;56.33;;;27.10;;
3068;SDS011;1545;51.728;8.796;2024-03-22T13:59:07;58.50;;;28.30;;
3068;SDS011;1545;51.728;8.796;2024-03-22T14:01:36;50.03;;;27.77;;
3068;SDS011;1545;51.728;8.796;2024-03-22T14:04:05;53.23;;;28.03;;
3068;SDS011;1545;51.728;8.796;2024-03-22T14:06:31;51.57;;;28.20;;
3068;SDS011;1545;51.728;8.796;2024-03-22T14:08:57;55.30;;;28.70;;
3068;SDS011;1545;51.728;8.796;2024-03-22T14:11:27;62.47;;;28.30;;
3068;SDS011;1545;51.728;8.796;2024-03-22T14:13:53;58.70;;;29.53;;
3068;SDS011;1545;51.728;8.796;2024-03-22T14:16:18;50.87;;;28.23;;
3068;SDS011;1545;51.728;8.796;2024-03-22T14:18:44;52.77;;;29.10;;
3068;SDS011;1545;51.728;8.796;2024-03-22T14:21:09;52.50;;;28.10;;
3068;SDS011;1545;51.728;8.796;2024-03-22T14:23:36;60.07;;;28.47;;
3068;SDS011;1545;51.728;8.796;2024-03-22T14:26:02;58.60;;;28.63;;
3068;SDS011;1545;51.728;8.796;2024-03-22T14:28:27;52.90;;;29.67;;
3068;SDS011;1545;51.728;8.796;2024-03-22T14:30:53;52.20;;;29.47;;
3068;SDS011;1545;51.728;8.796;2024-03-22T14:33:18;54.17;;;29.17;;
3068;SDS011;1545;51.728;8.796;2024-03-22T14:35:43;56.03;;;30.60;;
3068;SDS011;1545;51.728;8.796;2024-03-22T14:38:09;59.00;;;30.33;;
3068;SDS011;1545;51.728;8.796;2024-03-22T14:40:34;69.60;;;30.77;;